Aviation Digital Data Service (ADDS)

Output produced by TAFs form (1859 UTC 19 September 2017)
found at http://www.aviationweather.gov/adds/tafs/
 
METAR text: OERK 191800Z 00000KT CAVOK 33/M03 Q1012 NOSIG
Conditions at: OERK (RIYADH/KING KHAL, SA) observed 1800 UTC 19 September 2017
Temperature: 33.0°C (91°F)
Dewpoint: -3.0°C (27°F) [RH = 10%]
Pressure (altimeter): 29.88 inches Hg (1012.0 mb)
Winds: calm
Visibility: 6 or more miles (10+ km)
Ceiling: ceiling and visibility are OK
Clouds: unknown
Weather: no significant weather observed at this time

Forecast for: OERK (RIYADH/KING KHAL, SA)
Text: TAF OERK 191700Z 1918/2024 08008KT 7000 SKC
Forecast period: 1800 UTC 19 September 2017 to 0600 UTC 20 September 2017
Forecast type: FROM: standard forecast or significant change
Winds: from the E (80 degrees) at 9 MPH (8 knots; 4.2 m/s)
Visibility: 4 miles (7 km)
Clouds: clear skies
Weather: no significant weather forecast for this period
Text: BECMG 2006/2008 29012KT
Forecast period: 0600 UTC 20 September 2017 to 0000 UTC 21 September 2017
Forecast type: BECOMING: Conditions expected to become as follows by 0800 UTC 20 September 2017
Winds: from the WNW (290 degrees) at 14 MPH (12 knots; 6.2 m/s)
Visibility: 4 miles (7 km)
Clouds: clear skies
Weather: no significant weather forecast for this period